sensor_id;sensor_type;location;lat;lon;timestamp;P1;durP1;ratioP1;P2;durP2;ratioP2
4089;SDS011;2059;48.538;12.146;2024-01-30T00:04:50;26.23;;;23.40;;
4089;SDS011;2059;48.538;12.146;2024-01-30T00:09:53;24.23;;;21.00;;
4089;SDS011;2059;48.538;12.146;2024-01-30T00:14:55;27.43;;;22.90;;
4089;SDS011;2059;48.538;12.146;2024-01-30T00:19:57;28.00;;;21.87;;
4089;SDS011;2059;48.538;12.146;2024-01-30T00:25:00;25.37;;;21.03;;
4089;SDS011;2059;48.538;12.146;2024-01-30T00:30:02;22.47;;;19.40;;
4089;SDS011;2059;48.538;12.146;2024-01-30T00:35:05;21.30;;;19.07;;
4089;SDS011;2059;48.538;12.146;2024-01-30T00:40:09;29.33;;;19.33;;
4089;SDS011;2059;48.538;12.146;2024-01-30T00:45:15;21.60;;;19.30;;
4089;SDS011;2059;48.538;12.146;2024-01-30T00:50:17;20.83;;;18.17;;
4089;SDS011;2059;48.538;12.146;2024-01-30T00:55:21;22.30;;;18.77;;
4089;SDS011;2059;48.538;12.146;2024-01-30T01:00:22;21.17;;;18.60;;
4089;SDS011;2059;48.538;12.146;2024-01-30T01:05:28;23.93;;;20.03;;
4089;SDS011;2059;48.538;12.146;2024-01-30T01:10:32;21.03;;;18.67;;
4089;SDS011;2059;48.538;12.146;2024-01-30T01:15:33;20.47;;;18.30;;
4089;SDS011;2059;48.538;12.146;2024-01-30T01:20:35;20.73;;;18.47;;
4089;SDS011;2059;48.538;12.146;2024-01-30T01:25:39;19.87;;;17.90;;
4089;SDS011;2059;48.538;12.146;2024-01-30T01:30:40;19.73;;;17.70;;
4089;SDS011;2059;48.538;12.146;2024-01-30T01:35:42;21.10;;;17.50;;
4089;SDS011;2059;48.538;12.146;2024-01-30T01:40:45;19.23;;;17.10;;
4089;SDS011;2059;48.538;12.146;2024-01-30T01:45:47;18.97;;;16.97;;
4089;SDS011;2059;48.538;12.146;2024-01-30T01:50:49;19.00;;;17.00;;
4089;SDS011;2059;48.538;12.146;2024-01-30T01:55:52;18.80;;;16.30;;
4089;SDS011;2059;48.538;12.146;2024-01-30T02:00:55;18.00;;;16.17;;
4089;SDS011;2059;48.538;12.146;2024-01-30T02:05:58;20.23;;;18.03;;
4089;SDS011;2059;48.538;12.146;2024-01-30T02:11:01;17.77;;;15.97;;
4089;SDS011;2059;48.538;12.146;2024-01-30T02:16:03;21.10;;;17.03;;
4089;SDS011;2059;48.538;12.146;2024-01-30T02:21:07;18.67;;;16.63;;
4089;SDS011;2059;48.538;12.146;2024-01-30T02:26:09;23.20;;;17.17;;
4089;SDS011;2059;48.538;12.146;2024-01-30T02:31:11;23.13;;;20.40;;
4089;SDS011;2059;48.538;12.146;2024-01-30T02:36:14;19.67;;;17.67;;
4089;SDS011;2059;48.538;12.146;2024-01-30T02:41:16;20.47;;;18.27;;
4089;SDS011;2059;48.538;12.146;2024-01-30T02:46:18;19.73;;;17.03;;
4089;SDS011;2059;48.538;12.146;2024-01-30T02:51:21;21.63;;;19.43;;
4089;SDS011;2059;48.538;12.146;2024-01-30T02:56:23;17.57;;;15.77;;
4089;SDS011;2059;48.538;12.146;2024-01-30T03:01:24;19.03;;;17.13;;
4089;SDS011;2059;48.538;12.146;2024-01-30T03:06:28;17.77;;;15.97;;
4089;SDS011;2059;48.538;12.146;2024-01-30T03:11:29;19.13;;;16.33;;
4089;SDS011;2059;48.538;12.146;2024-01-30T03:16:31;18.67;;;16.67;;
4089;SDS011;2059;48.538;12.146;2024-01-30T03:21:34;18.53;;;16.50;;
4089;SDS011;2059;48.538;12.146;2024-01-30T03:26:36;20.10;;;17.93;;
4089;SDS011;2059;48.538;12.146;2024-01-30T03:31:38;18.63;;;16.70;;
4089;SDS011;2059;48.538;12.146;2024-01-30T03:36:41;21.20;;;17.53;;
4089;SDS011;2059;48.538;12.146;2024-01-30T03:41:43;19.80;;;17.70;;
4089;SDS011;2059;48.538;12.146;2024-01-30T03:46:45;20.00;;;17.97;;
4089;SDS011;2059;48.538;12.146;2024-01-30T03:51:48;20.47;;;16.57;;
4089;SDS011;2059;48.538;12.146;2024-01-30T03:56:50;23.70;;;17.53;;
4089;SDS011;2059;48.538;12.146;2024-01-30T04:01:52;20.93;;;18.60;;
4089;SDS011;2059;48.538;12.146;2024-01-30T04:06:55;22.00;;;18.17;;
4089;SDS011;2059;48.538;12.146;2024-01-30T04:11:57;19.83;;;17.60;;
4089;SDS011;2059;48.538;12.146;2024-01-30T04:16:58;19.97;;;18.00;;
4089;SDS011;2059;48.538;12.146;2024-01-30T04:22:02;20.70;;;17.10;;
4089;SDS011;2059;48.538;12.146;2024-01-30T04:27:04;19.37;;;17.37;;
4089;SDS011;2059;48.538;12.146;2024-01-30T04:32:06;20.67;;;18.13;;
4089;SDS011;2059;48.538;12.146;2024-01-30T04:37:09;20.00;;;17.97;;
4089;SDS011;2059;48.538;12.146;2024-01-30T04:42:11;20.67;;;17.90;;
4089;SDS011;2059;48.538;12.146;2024-01-30T04:47:13;21.00;;;18.70;;
4089;SDS011;2059;48.538;12.146;2024-01-30T04:52:16;19.50;;;17.00;;
4089;SDS011;2059;48.538;12.146;2024-01-30T04:57:18;20.97;;;17.60;;
4089;SDS011;2059;48.538;12.146;2024-01-30T05:02:20;24.33;;;19.60;;
4089;SDS011;2059;48.538;12.146;2024-01-30T05:07:23;20.80;;;18.03;;
4089;SDS011;2059;48.538;12.146;2024-01-30T05:12:25;25.53;;;19.20;;
4089;SDS011;2059;48.538;12.146;2024-01-30T05:17:27;23.60;;;19.57;;
4089;SDS011;2059;48.538;12.146;2024-01-30T05:22:30;21.13;;;18.77;;
4089;SDS011;2059;48.538;12.146;2024-01-30T05:27:32;22.57;;;18.87;;
4089;SDS011;2059;48.538;12.146;2024-01-30T05:32:34;23.37;;;19.53;;
4089;SDS011;2059;48.538;12.146;2024-01-30T05:37:37;22.20;;;18.00;;
4089;SDS011;2059;48.538;12.146;2024-01-30T05:42:38;21.40;;;19.20;;
4089;SDS011;2059;48.538;12.146;2024-01-30T05:47:40;23.50;;;19.73;;
4089;SDS011;2059;48.538;12.146;2024-01-30T05:52:43;20.33;;;18.13;;
4089;SDS011;2059;48.538;12.146;2024-01-30T05:57:45;23.13;;;19.40;;
4089;SDS011;2059;48.538;12.146;2024-01-30T06:02:47;21.50;;;18.57;;
4089;SDS011;2059;48.538;12.146;2024-01-30T06:07:50;22.97;;;19.40;;
4089;SDS011;2059;48.538;12.146;2024-01-30T06:12:52;21.97;;;18.90;;
4089;SDS011;2059;48.538;12.146;2024-01-30T06:17:54;28.73;;;22.20;;
4089;SDS011;2059;48.538;12.146;2024-01-30T06:22:57;24.20;;;19.67;;
4089;SDS011;2059;48.538;12.146;2024-01-30T06:27:58;23.50;;;20.83;;
4089;SDS011;2059;48.538;12.146;2024-01-30T06:33:00;27.80;;;21.37;;
4089;SDS011;2059;48.538;12.146;2024-01-30T06:38:03;25.97;;;22.50;;
4089;SDS011;2059;48.538;12.146;2024-01-30T06:43:05;24.93;;;21.40;;
4089;SDS011;2059;48.538;12.146;2024-01-30T06:48:07;27.17;;;21.73;;
4089;SDS011;2059;48.538;12.146;2024-01-30T06:53:10;26.67;;;23.10;;
4089;SDS011;2059;48.538;12.146;2024-01-30T06:58:12;23.43;;;20.93;;
4089;SDS011;2059;48.538;12.146;2024-01-30T07:03:14;27.13;;;22.20;;
4089;SDS011;2059;48.538;12.146;2024-01-30T07:08:29;32.47;;;24.97;;
4089;SDS011;2059;48.538;12.146;2024-01-30T07:13:31;35.80;;;25.53;;
4089;SDS011;2059;48.538;12.146;2024-01-30T07:18:33;29.37;;;24.70;;
4089;SDS011;2059;48.538;12.146;2024-01-30T07:23:40;31.70;;;26.30;;
4089;SDS011;2059;48.538;12.146;2024-01-30T07:28:43;29.37;;;23.23;;
4089;SDS011;2059;48.538;12.146;2024-01-30T07:33:54;35.60;;;24.30;;
4089;SDS011;2059;48.538;12.146;2024-01-30T07:39:02;35.73;;;24.73;;
4089;SDS011;2059;48.538;12.146;2024-01-30T07:44:04;31.07;;;24.57;;
4089;SDS011;2059;48.538;12.146;2024-01-30T07:49:06;27.53;;;22.97;;
4089;SDS011;2059;48.538;12.146;2024-01-30T07:54:09;26.00;;;22.80;;
4089;SDS011;2059;48.538;12.146;2024-01-30T07:59:11;27.07;;;23.57;;
4089;SDS011;2059;48.538;12.146;2024-01-30T08:04:13;27.67;;;22.27;;
4089;SDS011;2059;48.538;12.146;2024-01-30T08:09:16;27.70;;;22.90;;
4089;SDS011;2059;48.538;12.146;2024-01-30T08:14:18;30.30;;;22.77;;
4089;SDS011;2059;48.538;12.146;2024-01-30T08:19:20;25.13;;;21.33;;
4089;SDS011;2059;48.538;12.146;2024-01-30T08:24:23;36.40;;;25.30;;
4089;SDS011;2059;48.538;12.146;2024-01-30T08:29:25;31.37;;;25.37;;
4089;SDS011;2059;48.538;12.146;2024-01-30T08:34:27;30.30;;;25.30;;
4089;SDS011;2059;48.538;12.146;2024-01-30T08:39:32;36.90;;;24.50;;
4089;SDS011;2059;48.538;12.146;2024-01-30T08:44:34;32.00;;;25.40;;
4089;SDS011;2059;48.538;12.146;2024-01-30T08:55:35;29.97;;;25.30;;
4089;SDS011;2059;48.538;12.146;2024-01-30T09:00:37;36.20;;;27.43;;
4089;SDS011;2059;48.538;12.146;2024-01-30T09:05:39;29.63;;;25.93;;
4089;SDS011;2059;48.538;12.146;2024-01-30T09:10:42;32.37;;;26.40;;
4089;SDS011;2059;48.538;12.146;2024-01-30T09:15:45;26.90;;;24.00;;
4089;SDS011;2059;48.538;12.146;2024-01-30T09:20:47;30.17;;;24.50;;
4089;SDS011;2059;48.538;12.146;2024-01-30T09:25:50;27.90;;;24.97;;
4089;SDS011;2059;48.538;12.146;2024-01-30T09:30:52;28.67;;;25.30;;
4089;SDS011;2059;48.538;12.146;2024-01-30T09:35:53;30.30;;;24.73;;
4089;SDS011;2059;48.538;12.146;2024-01-30T09:40:57;30.40;;;25.83;;
4089;SDS011;2059;48.538;12.146;2024-01-30T09:46:04;29.83;;;25.53;;
4089;SDS011;2059;48.538;12.146;2024-01-30T09:51:08;31.10;;;26.23;;
4089;SDS011;2059;48.538;12.146;2024-01-30T09:56:13;33.03;;;26.60;;
4089;SDS011;2059;48.538;12.146;2024-01-30T10:01:15;29.13;;;26.10;;
4089;SDS011;2059;48.538;12.146;2024-01-30T10:06:19;30.20;;;27.00;;
4089;SDS011;2059;48.538;12.146;2024-01-30T10:11:23;31.40;;;26.57;;
4089;SDS011;2059;48.538;12.146;2024-01-30T10:16:25;32.13;;;26.00;;
4089;SDS011;2059;48.538;12.146;2024-01-30T10:21:27;30.90;;;26.30;;
4089;SDS011;2059;48.538;12.146;2024-01-30T10:26:31;27.93;;;25.10;;
4089;SDS011;2059;48.538;12.146;2024-01-30T10:31:34;33.57;;;25.40;;
4089;SDS011;2059;48.538;12.146;2024-01-30T10:36:39;30.30;;;27.00;;
4089;SDS011;2059;48.538;12.146;2024-01-30T10:41:43;29.03;;;24.17;;
4089;SDS011;2059;48.538;12.146;2024-01-30T10:46:45;29.10;;;26.00;;
4089;SDS011;2059;48.538;12.146;2024-01-30T10:51:52;28.60;;;25.63;;
4089;SDS011;2059;48.538;12.146;2024-01-30T10:56:56;26.37;;;23.73;;
4089;SDS011;2059;48.538;12.146;2024-01-30T11:01:59;27.97;;;24.93;;
4089;SDS011;2059;48.538;12.146;2024-01-30T11:07:13;27.53;;;24.73;;
4089;SDS011;2059;48.538;12.146;2024-01-30T11:12:20;28.07;;;25.10;;
4089;SDS011;2059;48.538;12.146;2024-01-30T11:17:26;28.10;;;25.30;;
4089;SDS011;2059;48.538;12.146;2024-01-30T11:22:30;27.37;;;24.40;;
4089;SDS011;2059;48.538;12.146;2024-01-30T11:27:33;28.50;;;25.70;;
4089;SDS011;2059;48.538;12.146;2024-01-30T11:32:35;27.40;;;24.30;;
4089;SDS011;2059;48.538;12.146;2024-01-30T11:37:37;27.60;;;24.33;;
4089;SDS011;2059;48.538;12.146;2024-01-30T11:42:41;27.37;;;24.63;;
4089;SDS011;2059;48.538;12.146;2024-01-30T11:47:44;27.60;;;24.80;;
4089;SDS011;2059;48.538;12.146;2024-01-30T11:52:46;28.57;;;25.67;;
4089;SDS011;2059;48.538;12.146;2024-01-30T11:57:50;28.30;;;25.27;;
4089;SDS011;2059;48.538;12.146;2024-01-30T12:02:52;27.50;;;24.70;;
4089;SDS011;2059;48.538;12.146;2024-01-30T12:07:57;28.23;;;25.23;;
4089;SDS011;2059;48.538;12.146;2024-01-30T12:13:00;28.37;;;25.47;;
4089;SDS011;2059;48.538;12.146;2024-01-30T12:18:06;27.93;;;24.97;;
4089;SDS011;2059;48.538;12.146;2024-01-30T12:23:08;28.27;;;25.37;;
4089;SDS011;2059;48.538;12.146;2024-01-30T12:28:11;28.70;;;25.70;;
4089;SDS011;2059;48.538;12.146;2024-01-30T12:33:15;30.83;;;27.63;;
4089;SDS011;2059;48.538;12.146;2024-01-30T12:38:17;31.77;;;26.37;;
4089;SDS011;2059;48.538;12.146;2024-01-30T12:43:21;30.93;;;27.73;;
4089;SDS011;2059;48.538;12.146;2024-01-30T12:48:23;30.50;;;27.40;;
4089;SDS011;2059;48.538;12.146;2024-01-30T12:53:25;31.93;;;28.63;;
4089;SDS011;2059;48.538;12.146;2024-01-30T12:58:28;33.40;;;29.87;;
4089;SDS011;2059;48.538;12.146;2024-01-30T13:03:29;32.07;;;28.77;;
4089;SDS011;2059;48.538;12.146;2024-01-30T13:08:31;30.70;;;26.43;;
4089;SDS011;2059;48.538;12.146;2024-01-30T13:13:34;30.73;;;26.60;;
4089;SDS011;2059;48.538;12.146;2024-01-30T13:18:36;29.53;;;26.43;;
4089;SDS011;2059;48.538;12.146;2024-01-30T13:23:38;28.27;;;25.30;;
4089;SDS011;2059;48.538;12.146;2024-01-30T13:28:41;28.83;;;25.90;;
4089;SDS011;2059;48.538;12.146;2024-01-30T13:33:44;29.07;;;26.07;;
4089;SDS011;2059;48.538;12.146;2024-01-30T13:38:46;31.73;;;28.30;;
4089;SDS011;2059;48.538;12.146;2024-01-30T13:43:49;31.53;;;27.80;;
4089;SDS011;2059;48.538;12.146;2024-01-30T13:48:51;30.03;;;26.97;;
4089;SDS011;2059;48.538;12.146;2024-01-30T13:53:53;32.03;;;28.63;;
4089;SDS011;2059;48.538;12.146;2024-01-30T13:58:56;33.70;;;30.23;;
4089;SDS011;2059;48.538;12.146;2024-01-30T14:03:58;35.70;;;29.30;;
4089;SDS011;2059;48.538;12.146;2024-01-30T14:09:00;33.23;;;29.67;;
4089;SDS011;2059;48.538;12.146;2024-01-30T14:14:05;32.03;;;28.53;;
4089;SDS011;2059;48.538;12.146;2024-01-30T14:19:06;32.67;;;29.20;;
4089;SDS011;2059;48.538;12.146;2024-01-30T14:24:08;33.87;;;30.17;;
4089;SDS011;2059;48.538;12.146;2024-01-30T14:29:11;32.83;;;29.23;;
4089;SDS011;2059;48.538;12.146;2024-01-30T14:34:13;32.40;;;28.30;;
4089;SDS011;2059;48.538;12.146;2024-01-30T14:39:15;34.60;;;30.03;;
4089;SDS011;2059;48.538;12.146;2024-01-30T14:44:18;35.03;;;29.17;;
4089;SDS011;2059;48.538;12.146;2024-01-30T14:49:20;34.50;;;30.87;;
4089;SDS011;2059;48.538;12.146;2024-01-30T14:54:21;38.97;;;33.00;;
4089;SDS011;2059;48.538;12.146;2024-01-30T14:59:24;36.20;;;32.27;;
4089;SDS011;2059;48.538;12.146;2024-01-30T15:04:26;36.70;;;32.80;;
4089;SDS011;2059;48.538;12.146;2024-01-30T15:09:28;39.73;;;30.80;;
4089;SDS011;2059;48.538;12.146;2024-01-30T15:14:31;35.63;;;31.50;;
4089;SDS011;2059;48.538;12.146;2024-01-30T15:19:33;34.83;;;31.03;;
4089;SDS011;2059;48.538;12.146;2024-01-30T15:24:35;35.87;;;31.43;;
4089;SDS011;2059;48.538;12.146;2024-01-30T15:29:38;34.60;;;31.00;;
4089;SDS011;2059;48.538;12.146;2024-01-30T15:34:40;35.63;;;31.30;;
4089;SDS011;2059;48.538;12.146;2024-01-30T15:39:41;36.30;;;32.37;;
4089;SDS011;2059;48.538;12.146;2024-01-30T15:44:45;40.47;;;32.67;;
4089;SDS011;2059;48.538;12.146;2024-01-30T15:49:47;38.73;;;29.23;;
4089;SDS011;2059;48.538;12.146;2024-01-30T15:54:48;36.40;;;30.20;;
4089;SDS011;2059;48.538;12.146;2024-01-30T15:59:51;34.70;;;30.90;;
4089;SDS011;2059;48.538;12.146;2024-01-30T16:04:53;34.70;;;30.13;;
4089;SDS011;2059;48.538;12.146;2024-01-30T16:09:55;33.73;;;30.10;;
4089;SDS011;2059;48.538;12.146;2024-01-30T16:14:58;33.13;;;28.97;;
4089;SDS011;2059;48.538;12.146;2024-01-30T16:20:00;32.57;;;29.07;;
4089;SDS011;2059;48.538;12.146;2024-01-30T16:25:01;38.70;;;30.03;;
4089;SDS011;2059;48.538;12.146;2024-01-30T16:30:06;34.30;;;29.40;;
4089;SDS011;2059;48.538;12.146;2024-01-30T16:35:09;34.97;;;29.63;;
4089;SDS011;2059;48.538;12.146;2024-01-30T16:40:11;33.70;;;30.00;;
4089;SDS011;2059;48.538;12.146;2024-01-30T16:45:14;41.80;;;31.50;;
4089;SDS011;2059;48.538;12.146;2024-01-30T16:50:16;44.37;;;32.07;;
4089;SDS011;2059;48.538;12.146;2024-01-30T16:55:18;41.07;;;33.00;;
4089;SDS011;2059;48.538;12.146;2024-01-30T17:00:23;37.83;;;30.10;;
4089;SDS011;2059;48.538;12.146;2024-01-30T17:05:25;39.57;;;31.67;;
4089;SDS011;2059;48.538;12.146;2024-01-30T17:10:26;37.50;;;30.80;;
4089;SDS011;2059;48.538;12.146;2024-01-30T17:15:29;39.87;;;31.90;;
4089;SDS011;2059;48.538;12.146;2024-01-30T17:20:31;40.70;;;31.97;;
4089;SDS011;2059;48.538;12.146;2024-01-30T17:25:33;44.63;;;35.83;;
4089;SDS011;2059;48.538;12.146;2024-01-30T17:30:36;50.90;;;38.70;;
4089;SDS011;2059;48.538;12.146;2024-01-30T17:35:39;49.83;;;38.67;;
4089;SDS011;2059;48.538;12.146;2024-01-30T17:40:41;50.80;;;39.37;;
4089;SDS011;2059;48.538;12.146;2024-01-30T17:45:44;85.33;;;56.00;;
4089;SDS011;2059;48.538;12.146;2024-01-30T17:50:46;87.30;;;57.03;;
4089;SDS011;2059;48.538;12.146;2024-01-30T17:55:47;62.83;;;49.10;;
4089;SDS011;2059;48.538;12.146;2024-01-30T18:00:50;58.73;;;44.43;;
4089;SDS011;2059;48.538;12.146;2024-01-30T18:05:52;46.90;;;38.50;;
4089;SDS011;2059;48.538;12.146;2024-01-30T18:10:55;46.47;;;36.87;;
4089;SDS011;2059;48.538;12.146;2024-01-30T18:15:58;41.00;;;32.33;;
4089;SDS011;2059;48.538;12.146;2024-01-30T18:21:00;37.87;;;31.17;;
4089;SDS011;2059;48.538;12.146;2024-01-30T18:26:02;41.60;;;33.67;;
4089;SDS011;2059;48.538;12.146;2024-01-30T18:31:05;42.43;;;32.57;;
4089;SDS011;2059;48.538;12.146;2024-01-30T18:36:08;40.00;;;32.53;;
4089;SDS011;2059;48.538;12.146;2024-01-30T18:41:10;37.17;;;31.17;;
4089;SDS011;2059;48.538;12.146;2024-01-30T18:46:13;37.03;;;30.87;;
4089;SDS011;2059;48.538;12.146;2024-01-30T18:51:21;37.43;;;31.93;;
4089;SDS011;2059;48.538;12.146;2024-01-30T18:56:22;51.47;;;38.10;;
4089;SDS011;2059;48.538;12.146;2024-01-30T19:01:25;42.70;;;33.20;;
4089;SDS011;2059;48.538;12.146;2024-01-30T19:06:28;45.37;;;37.00;;
4089;SDS011;2059;48.538;12.146;2024-01-30T19:11:30;50.27;;;38.27;;
4089;SDS011;2059;48.538;12.146;2024-01-30T19:16:33;50.07;;;38.37;;
4089;SDS011;2059;48.538;12.146;2024-01-30T19:21:35;47.87;;;36.50;;
4089;SDS011;2059;48.538;12.146;2024-01-30T19:26:37;48.37;;;37.60;;
4089;SDS011;2059;48.538;12.146;2024-01-30T19:31:40;54.50;;;38.90;;
4089;SDS011;2059;48.538;12.146;2024-01-30T19:36:42;41.63;;;31.40;;
4089;SDS011;2059;48.538;12.146;2024-01-30T19:41:44;39.77;;;31.37;;
4089;SDS011;2059;48.538;12.146;2024-01-30T19:46:47;46.40;;;33.23;;
4089;SDS011;2059;48.538;12.146;2024-01-30T19:51:49;39.50;;;30.80;;
4089;SDS011;2059;48.538;12.146;2024-01-30T19:56:50;52.30;;;34.47;;
4089;SDS011;2059;48.538;12.146;2024-01-30T20:01:54;66.10;;;38.37;;
4089;SDS011;2059;48.538;12.146;2024-01-30T20:06:56;67.90;;;41.30;;
4089;SDS011;2059;48.538;12.146;2024-01-30T20:11:57;49.77;;;37.17;;
4089;SDS011;2059;48.538;12.146;2024-01-30T20:17:01;49.57;;;35.97;;
4089;SDS011;2059;48.538;12.146;2024-01-30T20:22:02;40.27;;;31.13;;
4089;SDS011;2059;48.538;12.146;2024-01-30T20:27:04;39.40;;;30.30;;
4089;SDS011;2059;48.538;12.146;2024-01-30T20:32:08;39.13;;;31.70;;
4089;SDS011;2059;48.538;12.146;2024-01-30T20:37:10;38.30;;;29.97;;
4089;SDS011;2059;48.538;12.146;2024-01-30T20:42:11;36.50;;;30.00;;
4089;SDS011;2059;48.538;12.146;2024-01-30T20:47:14;41.23;;;32.87;;
4089;SDS011;2059;48.538;12.146;2024-01-30T20:52:16;45.27;;;33.60;;
4089;SDS011;2059;48.538;12.146;2024-01-30T20:57:18;43.33;;;33.33;;
4089;SDS011;2059;48.538;12.146;2024-01-30T21:02:21;45.10;;;33.87;;
4089;SDS011;2059;48.538;12.146;2024-01-30T21:07:23;40.57;;;31.47;;
4089;SDS011;2059;48.538;12.146;2024-01-30T21:12:26;45.20;;;34.17;;
4089;SDS011;2059;48.538;12.146;2024-01-30T21:17:30;36.17;;;30.53;;
4089;SDS011;2059;48.538;12.146;2024-01-30T21:22:32;38.03;;;29.70;;
4089;SDS011;2059;48.538;12.146;2024-01-30T21:27:33;35.67;;;29.23;;
4089;SDS011;2059;48.538;12.146;2024-01-30T21:32:40;37.33;;;30.97;;
4089;SDS011;2059;48.538;12.146;2024-01-30T21:37:42;41.20;;;31.97;;
4089;SDS011;2059;48.538;12.146;2024-01-30T21:42:43;35.83;;;30.73;;
4089;SDS011;2059;48.538;12.146;2024-01-30T21:47:47;37.77;;;29.47;;
4089;SDS011;2059;48.538;12.146;2024-01-30T21:52:49;38.90;;;30.10;;
4089;SDS011;2059;48.538;12.146;2024-01-30T21:57:52;34.20;;;28.80;;
4089;SDS011;2059;48.538;12.146;2024-01-30T22:02:55;34.47;;;27.80;;
4089;SDS011;2059;48.538;12.146;2024-01-30T22:07:57;35.07;;;29.00;;
4089;SDS011;2059;48.538;12.146;2024-01-30T22:12:58;39.50;;;29.70;;
4089;SDS011;2059;48.538;12.146;2024-01-30T22:18:01;38.73;;;30.17;;
4089;SDS011;2059;48.538;12.146;2024-01-30T22:23:03;38.90;;;29.80;;
4089;SDS011;2059;48.538;12.146;2024-01-30T22:28:05;37.97;;;28.80;;
4089;SDS011;2059;48.538;12.146;2024-01-30T22:33:10;32.23;;;25.90;;
4089;SDS011;2059;48.538;12.146;2024-01-30T22:38:11;32.03;;;27.30;;
4089;SDS011;2059;48.538;12.146;2024-01-30T22:43:13;27.37;;;24.23;;
4089;SDS011;2059;48.538;12.146;2024-01-30T22:48:16;30.83;;;25.47;;
4089;SDS011;2059;48.538;12.146;2024-01-30T22:53:27;27.13;;;23.97;;
4089;SDS011;2059;48.538;12.146;2024-01-30T22:58:29;29.40;;;23.20;;
4089;SDS011;2059;48.538;12.146;2024-01-30T23:03:32;28.77;;;23.50;;
4089;SDS011;2059;48.538;12.146;2024-01-30T23:08:34;29.60;;;23.60;;
4089;SDS011;2059;48.538;12.146;2024-01-30T23:13:37;32.53;;;26.97;;
4089;SDS011;2059;48.538;12.146;2024-01-30T23:18:40;32.67;;;27.23;;
4089;SDS011;2059;48.538;12.146;2024-01-30T23:23:42;32.10;;;25.60;;
4089;SDS011;2059;48.538;12.146;2024-01-30T23:28:44;34.77;;;28.77;;
4089;SDS011;2059;48.538;12.146;2024-01-30T23:33:48;33.13;;;26.00;;
4089;SDS011;2059;48.538;12.146;2024-01-30T23:38:50;33.40;;;25.60;;
4089;SDS011;2059;48.538;12.146;2024-01-30T23:43:51;30.10;;;25.70;;
4089;SDS011;2059;48.538;12.146;2024-01-30T23:48:54;30.90;;;25.87;;
4089;SDS011;2059;48.538;12.146;2024-01-30T23:53:56;34.40;;;25.70;;
4089;SDS011;2059;48.538;12.146;2024-01-30T23:58:58;30.37;;;25.10;;
